Time;durP1;ratioP1;P1;durP2;ratioP2;P2;SDS_P1;SDS_P2;PMS_P1;PMS_P2;Temp;Humidity;BMP_temperature;BMP_pressure;BME280_temperature;BME280_humidity;BME280_pressure;Samples;Min_cycle;Max_cycle;Signal;HPM_P1;HPM_P2
2022/11/12 00:01:01;;;;;;;19.25;12.00;;;;;;;;;;5051362;28;20033;-76
2022/11/12 00:03:27;;;;;;;20.65;12.38;;;;;;;;;;5051792;28;20029;-77
2022/11/12 00:05:53;;;;;;;20.20;13.20;;;;;;;;;;5050909;28;20021;-76
2022/11/12 00:08:20;;;;;;;21.65;12.45;;;;;;;;;;5051610;28;20534;-76
2022/11/12 00:10:46;;;;;;;20.35;11.82;;;;;;;;;;5071207;28;20044;-76
2022/11/12 00:13:12;;;;;;;19.85;11.15;;;;;;;;;;5071095;28;20078;-76
2022/11/12 00:15:38;;;;;;;19.52;11.98;;;;;;;;;;5053169;28;20489;-76
2022/11/12 00:18:04;;;;;;;19.17;13.10;;;;;;;;;;5069643;28;20029;-77
2022/11/12 00:20:30;;;;;;;21.08;13.13;;;;;;;;;;5070875;28;20021;-75
2022/11/12 00:22:56;;;;;;;30.48;12.15;;;;;;;;;;5070926;28;20020;-76
2022/11/12 00:25:22;;;;;;;19.45;12.05;;;;;;;;;;5070835;28;20035;-76
2022/11/12 00:27:49;;;;;;;22.17;13.52;;;;;;;;;;5070244;28;20529;-75
2022/11/12 00:30:15;;;;;;;22.17;13.10;;;;;;;;;;5070901;28;20516;-76
2022/11/12 00:32:41;;;;;;;19.98;12.00;;;;;;;;;;5070993;28;20402;-76
2022/11/12 00:35:07;;;;;;;21.80;13.05;;;;;;;;;;5070757;28;20059;-76
2022/11/12 00:37:33;;;;;;;16.90;11.07;;;;;;;;;;5070575;28;20074;-76
2022/11/12 00:39:59;;;;;;;22.25;12.90;;;;;;;;;;5070834;28;20021;-76
2022/11/12 00:42:25;;;;;;;16.63;11.05;;;;;;;;;;5071141;28;20437;-76
2022/11/12 00:44:51;;;;;;;18.67;10.38;;;;;;;;;;5052742;28;20020;-76
2022/11/12 00:47:17;;;;;;;18.50;10.68;;;;;;;;;;5069985;28;20029;-76
2022/11/12 00:49:43;;;;;;;17.73;10.23;;;;;;;;;;5070516;28;20025;-77
2022/11/12 00:52:09;;;;;;;14.60;9.88;;;;;;;;;;5071058;28;20077;-78
2022/11/12 00:54:35;;;;;;;19.80;10.50;;;;;;;;;;5070809;28;20487;-78
2022/11/12 00:57:01;;;;;;;19.13;11.18;;;;;;;;;;5070238;28;20077;-75
2022/11/12 00:59:27;;;;;;;18.17;9.73;;;;;;;;;;5070229;28;20032;-78
2022/11/12 01:01:56;;;;;;;16.88;10.98;;;;;;;;;;5070815;28;20028;-78
2022/11/12 01:04:22;;;;;;;14.45;9.18;;;;;;;;;;5070745;28;20025;-79
2022/11/12 01:06:48;;;;;;;15.98;10.32;;;;;;;;;;5074011;28;20036;-78
2022/11/12 01:09:14;;;;;;;15.90;10.23;;;;;;;;;;5082135;28;20036;-79
2022/11/12 01:11:40;;;;;;;15.35;9.93;;;;;;;;;;5083722;28;20031;-78
2022/11/12 01:14:07;;;;;;;17.48;10.40;;;;;;;;;;5076366;28;20122;-78
2022/11/12 01:16:38;;;;;;;18.95;9.80;;;;;;;;;;5070495;28;20033;-79
2022/11/12 01:19:04;;;;;;;17.05;10.73;;;;;;;;;;5070159;28;20082;-78
2022/11/12 01:21:31;;;;;;;16.10;10.70;;;;;;;;;;5070745;28;20498;-78
2022/11/12 01:23:58;;;;;;;16.55;10.07;;;;;;;;;;5070859;28;20532;-78
2022/11/12 01:26:24;;;;;;;16.30;10.82;;;;;;;;;;5052556;28;20026;-77
2022/11/12 01:28:50;;;;;;;18.45;11.60;;;;;;;;;;5052091;28;20028;-77
2022/11/12 01:31:22;;;;;;;20.30;10.65;;;;;;;;;;5073913;28;20020;-79
2022/11/12 01:33:49;;;;;;;17.25;10.13;;;;;;;;;;5056562;28;20165;-78
2022/11/12 01:36:17;;;;;;;13.52;8.77;;;;;;;;;;5074354;28;20425;-77
2022/11/12 01:38:43;;;;;;;15.13;9.15;;;;;;;;;;5073403;28;20032;-78
2022/11/12 01:41:11;;;;;;;14.07;9.40;;;;;;;;;;5074192;28;20028;-78
2022/11/12 01:43:37;;;;;;;13.50;8.57;;;;;;;;;;5055831;28;20027;-78
2022/11/12 01:46:07;;;;;;;12.55;8.25;;;;;;;;;;5055862;28;20028;-78
2022/11/12 01:48:38;;;;;;;11.82;7.72;;;;;;;;;;5055388;28;20024;-77
2022/11/12 01:51:04;;;;;;;10.85;7.50;;;;;;;;;;5073782;28;20497;-77
2022/11/12 01:53:33;;;;;;;12.23;8.07;;;;;;;;;;5073700;28;20036;-77
2022/11/12 01:56:00;;;;;;;12.77;8.23;;;;;;;;;;5073746;28;20021;-78
2022/11/12 01:58:29;;;;;;;11.38;7.15;;;;;;;;;;5054886;28;20097;-78
2022/11/12 02:00:55;;;;;;;12.10;7.00;;;;;;;;;;5073065;28;20089;-77
2022/11/12 02:03:23;;;;;;;11.48;7.47;;;;;;;;;;5073663;28;20095;-77
2022/11/12 02:05:52;;;;;;;14.18;7.35;;;;;;;;;;5055497;28;20436;-77
2022/11/12 02:08:19;;;;;;;10.15;6.75;;;;;;;;;;5072515;28;20047;-77
2022/11/12 02:10:45;;;;;;;10.30;6.63;;;;;;;;;;5073261;28;20124;-78
2022/11/12 02:15:56;;;;;;;15.35;7.05;;;;;;;;;;5073608;28;20474;-76
2022/11/12 02:18:22;;;;;;;11.82;6.95;;;;;;;;;;5072804;28;20466;-77
2022/11/12 02:20:53;;;;;;;12.80;7.13;;;;;;;;;;5073332;28;20032;-77
2022/11/12 02:23:19;;;;;;;10.30;7.10;;;;;;;;;;5055187;28;20017;-77
2022/11/12 02:25:45;;;;;;;11.32;6.57;;;;;;;;;;5073193;28;20036;-77
2022/11/12 02:28:11;;;;;;;10.43;6.50;;;;;;;;;;5054578;28;20028;-78
2022/11/12 02:30:39;;;;;;;12.25;6.38;;;;;;;;;;5055291;28;20024;-78
2022/11/12 02:33:05;;;;;;;13.32;7.88;;;;;;;;;;5073087;28;20053;-78
2022/11/12 02:35:31;;;;;;;17.17;8.35;;;;;;;;;;5072987;28;20316;-78
2022/11/12 02:37:57;;;;;;;11.32;7.80;;;;;;;;;;5054259;28;20024;-78
2022/11/12 02:40:23;;;;;;;13.13;7.80;;;;;;;;;;5072601;28;20483;-77
2022/11/12 02:42:49;;;;;;;14.88;7.32;;;;;;;;;;5072996;28;20028;-77
2022/11/12 02:45:15;;;;;;;12.75;7.88;;;;;;;;;;5072664;28;20016;-76
2022/11/12 02:47:41;;;;;;;11.98;7.75;;;;;;;;;;5071782;28;20487;-78
2022/11/12 02:50:08;;;;;;;10.77;6.85;;;;;;;;;;5072689;28;20498;-80
2022/11/12 02:52:34;;;;;;;10.50;6.95;;;;;;;;;;5054706;28;20028;-77
2022/11/12 02:55:00;;;;;;;12.25;7.28;;;;;;;;;;5054854;28;20036;-79
2022/11/12 02:57:28;;;;;;;11.27;7.20;;;;;;;;;;5072028;28;20391;-79
2022/11/12 02:59:54;;;;;;;13.07;7.45;;;;;;;;;;5072217;28;20486;-79
2022/11/12 03:02:20;;;;;;;12.95;7.10;;;;;;;;;;5072413;28;20024;-76
2022/11/12 03:04:46;;;;;;;10.05;6.50;;;;;;;;;;5072652;28;20092;-77
2022/11/12 03:07:12;;;;;;;10.70;6.70;;;;;;;;;;5071620;28;20074;-77
2022/11/12 03:09:38;;;;;;;12.60;7.43;;;;;;;;;;5053942;28;20065;-77
2022/11/12 03:12:04;;;;;;;11.48;7.38;;;;;;;;;;5072310;28;20028;-77
2022/11/12 03:14:30;;;;;;;10.30;7.28;;;;;;;;;;5072157;28;20035;-76
2022/11/12 03:16:56;;;;;;;10.02;6.70;;;;;;;;;;5072290;28;20028;-77
2022/11/12 03:19:22;;;;;;;11.63;7.18;;;;;;;;;;5071634;28;20423;-77
2022/11/12 03:21:48;;;;;;;14.15;7.45;;;;;;;;;;5054335;28;20028;-77
2022/11/12 03:24:14;;;;;;;11.95;6.80;;;;;;;;;;5072211;28;20150;-77
2022/11/12 03:26:40;;;;;;;11.15;7.00;;;;;;;;;;5072107;28;20055;-78
2022/11/12 03:29:06;;;;;;;12.10;6.88;;;;;;;;;;5071401;28;20044;-77
2022/11/12 03:31:32;;;;;;;8.40;5.78;;;;;;;;;;5071996;28;20129;-76
2022/11/12 03:33:58;;;;;;;9.40;5.55;;;;;;;;;;5071784;28;20017;-77
2022/11/12 03:36:24;;;;;;;8.35;5.28;;;;;;;;;;5071665;28;20020;-77
2022/11/12 03:38:50;;;;;;;9.05;5.78;;;;;;;;;;5071462;28;20023;-76
2022/11/12 03:41:16;;;;;;;7.63;5.20;;;;;;;;;;5072499;28;20074;-75
2022/11/12 03:43:42;;;;;;;9.07;5.90;;;;;;;;;;5072025;28;20032;-76
2022/11/12 03:46:08;;;;;;;9.80;6.05;;;;;;;;;;5072505;28;20043;-76
2022/11/12 03:48:34;;;;;;;9.65;5.72;;;;;;;;;;5072049;28;20046;-76
2022/11/12 03:51:00;;;;;;;8.32;5.10;;;;;;;;;;5075856;28;20479;-76
2022/11/12 03:53:26;;;;;;;7.20;5.25;;;;;;;;;;5075294;28;20032;-77
2022/11/12 03:55:52;;;;;;;10.50;5.15;;;;;;;;;;5080642;28;20028;-77
2022/11/12 03:58:18;;;;;;;9.50;5.40;;;;;;;;;;5079790;28;20391;-77
2022/11/12 04:00:44;;;;;;;8.35;5.43;;;;;;;;;;5081133;28;20056;-78
2022/11/12 04:03:10;;;;;;;8.63;5.60;;;;;;;;;;5079887;28;20032;-75
2022/11/12 04:08:37;;;;;;;8.68;5.93;;;;;;;;;;5076176;28;20529;-76
2022/11/12 04:11:14;;;;;;;9.52;6.15;;;;;;;;;;5077553;28;20036;-76
2022/11/12 04:13:41;;;;;;;9.88;6.30;;;;;;;;;;5072220;28;20033;-75
2022/11/12 04:21:55;;;;;;;7.80;5.85;;;;;;;;;;5071608;28;20039;-76
2022/11/12 04:27:06;;;;;;;9.60;5.88;;;;;;;;;;5070509;28;20031;-78
2022/11/12 04:32:17;;;;;;;8.45;5.75;;;;;;;;;;5070967;28;20140;-76
2022/11/12 04:34:43;;;;;;;10.63;5.90;;;;;;;;;;5071018;28;20086;-76
2022/11/12 04:37:09;;;;;;;8.68;5.57;;;;;;;;;;5070584;28;20054;-76
2022/11/12 04:39:35;;;;;;;8.13;5.30;;;;;;;;;;5070761;28;20025;-76
2022/11/12 04:45:02;;;;;;;6.75;5.22;;;;;;;;;;5071029;28;20032;-76
2022/11/12 04:47:36;;;;;;;9.50;5.82;;;;;;;;;;5070347;28;20050;-77
2022/11/12 04:50:04;;;;;;;8.80;5.85;;;;;;;;;;5070794;28;20057;-75
2022/11/12 04:52:30;;;;;;;8.55;5.88;;;;;;;;;;5070751;28;20020;-75
2022/11/12 04:54:56;;;;;;;13.00;6.03;;;;;;;;;;5070719;28;20035;-75
2022/11/12 04:57:22;;;;;;;10.85;6.13;;;;;;;;;;5070002;28;20673;-77
2022/11/12 04:59:48;;;;;;;9.73;5.65;;;;;;;;;;5070808;28;20316;-77
2022/11/12 05:02:15;;;;;;;8.25;5.00;;;;;;;;;;5071205;28;20062;-76
2022/11/12 05:04:41;;;;;;;6.88;4.55;;;;;;;;;;5072795;28;20024;-76
2022/11/12 05:07:08;;;;;;;11.02;6.60;;;;;;;;;;5074126;28;20021;-76
2022/11/12 05:09:34;;;;;;;14.57;9.98;;;;;;;;;;5074366;28;20036;-76
2022/11/12 05:12:00;;;;;;;14.38;9.63;;;;;;;;;;5074708;28;20577;-75
2022/11/12 05:14:26;;;;;;;19.70;11.30;;;;;;;;;;5074674;28;20033;-76
2022/11/12 05:16:52;;;;;;;20.58;11.45;;;;;;;;;;5074347;28;20103;-77
2022/11/12 05:19:18;;;;;;;24.67;12.15;;;;;;;;;;5073633;28;20082;-77
2022/11/12 05:24:29;;;;;;;22.40;14.35;;;;;;;;;;5074783;28;20116;-76
2022/11/12 05:26:56;;;;;;;21.33;13.25;;;;;;;;;;5074134;28;20025;-78
2022/11/12 05:29:21;;;;;;;20.30;13.30;;;;;;;;;;5073528;28;20029;-76
2022/11/12 05:31:47;;;;;;;20.58;13.13;;;;;;;;;;5074429;28;20082;-76
2022/11/12 05:34:14;;;;;;;22.40;13.32;;;;;;;;;;5074549;28;20047;-77
2022/11/12 05:36:40;;;;;;;18.85;11.98;;;;;;;;;;5074776;28;20044;-77
2022/11/12 05:39:06;;;;;;;21.10;12.95;;;;;;;;;;5076878;28;20115;-75
2022/11/12 05:41:32;;;;;;;13.57;9.80;;;;;;;;;;5077729;28;20075;-75
2022/11/12 05:43:58;;;;;;;16.05;10.57;;;;;;;;;;5075381;28;20056;-74
2022/11/12 05:46:24;;;;;;;14.10;8.95;;;;;;;;;;5074465;28;20115;-77
2022/11/12 05:48:50;;;;;;;15.77;9.68;;;;;;;;;;5055403;28;20437;-77
2022/11/12 05:51:16;;;;;;;12.68;8.75;;;;;;;;;;5073921;28;20024;-76
2022/11/12 05:53:42;;;;;;;15.05;10.77;;;;;;;;;;5056111;28;20025;-76
2022/11/12 05:56:08;;;;;;;14.75;9.93;;;;;;;;;;5073677;28;20372;-76
2022/11/12 05:58:35;;;;;;;14.13;9.40;;;;;;;;;;5054725;28;20036;-76
2022/11/12 06:01:01;;;;;;;15.15;9.95;;;;;;;;;;5073439;28;20025;-76
2022/11/12 06:03:27;;;;;;;13.45;9.38;;;;;;;;;;5073652;28;20028;-76
2022/11/12 06:05:53;;;;;;;14.48;9.38;;;;;;;;;;5073493;28;20112;-76
2022/11/12 06:08:19;;;;;;;14.20;8.88;;;;;;;;;;5072761;28;20105;-76
2022/11/12 06:10:52;;;;;;;16.17;9.88;;;;;;;;;;5073427;28;20410;-77
2022/11/12 06:13:19;;;;;;;14.27;9.55;;;;;;;;;;5055684;28;20016;-75
2022/11/12 06:15:45;;;;;;;13.38;9.15;;;;;;;;;;5072918;28;20076;-75
2022/11/12 06:18:11;;;;;;;11.68;8.20;;;;;;;;;;5073075;28;20059;-75
2022/11/12 06:20:37;;;;;;;11.55;8.90;;;;;;;;;;5073387;28;20059;-75
2022/11/12 06:23:03;;;;;;;11.52;7.95;;;;;;;;;;5055507;28;20436;-75
2022/11/12 06:25:29;;;;;;;12.00;8.13;;;;;;;;;;5073487;28;20036;-75
2022/11/12 06:27:55;;;;;;;13.27;8.07;;;;;;;;;;5054847;28;20551;-75
2022/11/12 06:30:21;;;;;;;13.70;9.23;;;;;;;;;;5073234;28;20024;-76
2022/11/12 06:32:48;;;;;;;13.88;8.57;;;;;;;;;;5073098;28;20031;-75
2022/11/12 06:35:14;;;;;;;12.27;8.40;;;;;;;;;;5072996;28;20090;-75
2022/11/12 06:37:40;;;;;;;14.60;8.32;;;;;;;;;;5053936;28;20088;-75
2022/11/12 06:40:07;;;;;;;13.70;7.40;;;;;;;;;;5072946;28;20049;-74
2022/11/12 06:42:33;;;;;;;11.63;7.55;;;;;;;;;;5054693;28;20062;-75
2022/11/12 06:44:59;;;;;;;10.57;7.35;;;;;;;;;;5045400;28;20445;-75
2022/11/12 06:47:25;;;;;;;10.98;6.97;;;;;;;;;;5046139;28;20025;-74
2022/11/12 06:49:51;;;;;;;10.40;6.68;;;;;;;;;;5056655;28;20021;-75
2022/11/12 06:52:17;;;;;;;10.65;7.00;;;;;;;;;;5058232;28;20029;-75
2022/11/12 06:54:43;;;;;;;10.35;6.13;;;;;;;;;;5052414;28;20029;-76
2022/11/12 06:57:09;;;;;;;9.80;6.28;;;;;;;;;;5050479;28;20025;-77
2022/11/12 06:59:35;;;;;;;9.40;5.75;;;;;;;;;;5052189;28;20036;-76
2022/11/12 07:02:01;;;;;;;7.25;5.40;;;;;;;;;;5052502;28;20104;-76
2022/11/12 07:04:27;;;;;;;10.38;5.13;;;;;;;;;;5052861;28;20427;-78
2022/11/12 07:06:53;;;;;;;7.78;5.05;;;;;;;;;;5052309;28;20039;-77
2022/11/12 07:09:19;;;;;;;9.18;5.95;;;;;;;;;;5062222;28;20067;-77
2022/11/12 07:11:45;;;;;;;8.00;5.43;;;;;;;;;;5071984;28;20521;-78
2022/11/12 07:14:12;;;;;;;8.90;5.85;;;;;;;;;;5072456;28;20048;-75
2022/11/12 07:16:38;;;;;;;11.30;6.57;;;;;;;;;;5071880;28;20680;-75
2022/11/12 07:19:04;;;;;;;11.30;7.30;;;;;;;;;;5071416;28;20446;-71
2022/11/12 07:21:30;;;;;;;10.20;6.38;;;;;;;;;;5072040;28;20363;-76
2022/11/12 07:23:56;;;;;;;11.32;7.20;;;;;;;;;;5071963;28;20483;-74
2022/11/12 07:26:23;;;;;;;12.63;6.95;;;;;;;;;;5071858;28;20020;-75
2022/11/12 07:28:50;;;;;;;12.43;7.70;;;;;;;;;;5070792;28;20143;-75
2022/11/12 07:31:16;;;;;;;13.13;6.82;;;;;;;;;;5028601;28;20029;-75
2022/11/12 07:33:43;;;;;;;11.93;6.70;;;;;;;;;;5030902;28;20025;-73
2022/11/12 07:36:13;;;;;;;9.68;6.60;;;;;;;;;;5034193;28;20031;-74
2022/11/12 07:38:40;;;;;;;11.55;7.38;;;;;;;;;;5050899;28;20032;-71
2022/11/12 07:41:14;;;;;;;9.98;6.78;;;;;;;;;;5051528;28;20035;-76
2022/11/12 07:43:40;;;;;;;10.57;6.13;;;;;;;;;;5051285;28;20053;-74
2022/11/12 07:46:07;;;;;;;10.48;6.57;;;;;;;;;;5051605;28;20021;-74
2022/11/12 07:48:33;;;;;;;10.68;6.22;;;;;;;;;;5050343;28;20564;-75
2022/11/12 07:51:04;;;;;;;12.15;7.07;;;;;;;;;;5051312;28;20044;-75
2022/11/12 07:53:30;;;;;;;11.80;6.78;;;;;;;;;;5051314;28;20017;-76
2022/11/12 07:55:56;;;;;;;10.38;5.78;;;;;;;;;;5051471;28;20358;-76
2022/11/12 07:58:23;;;;;;;12.63;7.47;;;;;;;;;;5050384;28;20083;-76
2022/11/12 08:00:50;;;;;;;10.02;5.82;;;;;;;;;;5051480;28;20033;-75
2022/11/12 08:03:16;;;;;;;9.80;6.18;;;;;;;;;;5051740;28;20025;-78
2022/11/12 08:05:42;;;;;;;9.15;6.50;;;;;;;;;;5050364;28;20116;-76
2022/11/12 08:08:08;;;;;;;9.13;5.90;;;;;;;;;;5049672;28;20531;-76
2022/11/12 08:10:34;;;;;;;11.68;6.10;;;;;;;;;;5050618;28;20107;-76
2022/11/12 08:13:00;;;;;;;9.63;6.20;;;;;;;;;;5050371;28;20032;-78
2022/11/12 08:15:26;;;;;;;10.38;6.10;;;;;;;;;;5050893;28;20484;-76
2022/11/12 08:17:52;;;;;;;12.35;6.13;;;;;;;;;;5049982;28;20071;-73
2022/11/12 08:20:18;;;;;;;10.77;5.68;;;;;;;;;;5050574;28;20028;-76
2022/11/12 08:22:44;;;;;;;9.02;5.82;;;;;;;;;;5050195;28;20486;-76
2022/11/12 08:25:10;;;;;;;8.35;5.70;;;;;;;;;;5051038;28;20021;-75
2022/11/12 08:27:36;;;;;;;8.23;5.40;;;;;;;;;;5050041;28;20025;-72
2022/11/12 08:30:03;;;;;;;10.77;6.50;;;;;;;;;;5050801;28;20139;-75
2022/11/12 08:32:29;;;;;;;8.88;5.60;;;;;;;;;;5050717;28;20032;-76
2022/11/12 08:34:55;;;;;;;10.63;5.38;;;;;;;;;;5047679;28;20025;-77
2022/11/12 08:37:24;;;;;;;8.48;5.88;;;;;;;;;;5049730;28;20032;-78
2022/11/12 08:39:53;;;;;;;7.65;5.50;;;;;;;;;;5051958;28;20048;-77
2022/11/12 08:42:21;;;;;;;10.40;5.45;;;;;;;;;;5054120;28;20021;-77
2022/11/12 08:44:50;;;;;;;8.27;5.30;;;;;;;;;;5035993;28;20718;-77
2022/11/12 08:47:16;;;;;;;13.45;5.72;;;;;;;;;;5053475;28;20021;-78
2022/11/12 08:49:43;;;;;;;8.82;5.38;;;;;;;;;;5035922;28;20119;-77
2022/11/12 08:52:09;;;;;;;8.32;4.40;;;;;;;;;;5036883;28;20028;-77
2022/11/12 08:54:35;;;;;;;9.75;5.70;;;;;;;;;;5053673;28;20108;-80
2022/11/12 08:57:01;;;;;;;8.85;5.25;;;;;;;;;;5037263;28;20024;-78
2022/11/12 08:59:27;;;;;;;7.95;4.68;;;;;;;;;;5037609;28;20391;-78
2022/11/12 09:01:59;;;;;;;10.27;5.53;;;;;;;;;;5038588;28;20044;-80
2022/11/12 09:04:25;;;;;;;7.70;5.43;;;;;;;;;;5056694;28;20021;-78
2022/11/12 09:06:54;;;;;;;8.65;5.93;;;;;;;;;;5038261;28;20021;-78
2022/11/12 09:09:22;;;;;;;6.78;5.00;;;;;;;;;;5037882;28;20399;-76
2022/11/12 09:11:48;;;;;;;8.65;5.15;;;;;;;;;;5054373;28;20033;-78
2022/11/12 09:14:14;;;;;;;8.48;5.45;;;;;;;;;;5055041;28;20103;-76
2022/11/12 09:16:45;;;;;;;9.98;6.00;;;;;;;;;;5055158;28;20092;-79
2022/11/12 09:19:14;;;;;;;11.05;6.85;;;;;;;;;;5053707;28;20207;-78
2022/11/12 09:21:42;;;;;;;10.70;6.60;;;;;;;;;;5036646;28;20025;-78
2022/11/12 09:24:08;;;;;;;8.70;5.20;;;;;;;;;;5036806;28;20042;-77
2022/11/12 09:26:34;;;;;;;11.45;6.22;;;;;;;;;;5036625;28;20025;-77
2022/11/12 09:29:03;;;;;;;12.88;5.85;;;;;;;;;;5035869;28;20029;-78
2022/11/12 09:31:31;;;;;;;8.02;5.82;;;;;;;;;;5036890;28;20025;-78
2022/11/12 09:33:57;;;;;;;9.65;5.55;;;;;;;;;;5036490;28;20055;-78
2022/11/12 09:36:23;;;;;;;10.43;5.85;;;;;;;;;;5054712;28;20037;-79
2022/11/12 09:38:49;;;;;;;7.85;5.65;;;;;;;;;;5054054;28;20395;-78
2022/11/12 09:41:22;;;;;;;8.15;5.45;;;;;;;;;;5054354;28;20482;-78
2022/11/12 09:43:57;;;;;;;8.88;5.90;;;;;;;;;;5036502;28;20032;-79
2022/11/12 09:46:23;;;;;;;10.90;5.93;;;;;;;;;;5054282;28;20026;-77
2022/11/12 09:48:53;;;;;;;7.47;5.90;;;;;;;;;;5035449;28;20017;-77
2022/11/12 09:51:35;;;;;;;7.22;5.38;;;;;;;;;;5054729;28;20053;-77
2022/11/12 09:54:14;;;;;;;7.65;5.47;;;;;;;;;;5036481;28;20583;-77
2022/11/12 09:56:40;;;;;;;9.63;5.38;;;;;;;;;;5037343;28;20025;-77
2022/11/12 09:59:11;;;;;;;10.30;5.57;;;;;;;;;;5055190;28;20483;-77
2022/11/12 10:01:37;;;;;;;;;;;;;;;;;;5048592;28;20035;-77
2022/11/12 10:04:12;;;;;;;7.35;4.72;;;;;;;;;;5067853;28;19909;-77
2022/11/12 10:06:51;;;;;;;7.78;4.85;;;;;;;;;;5069152;28;20005;-80
2022/11/12 10:09:29;;;;;;;8.32;5.20;;;;;;;;;;5058436;28;20033;-82
2022/11/12 10:18:25;;;;;;;5.95;4.10;;;;;;;;;;4998433;28;20136;-77
2022/11/12 10:21:03;;;;;;;7.60;4.47;;;;;;;;;;5020476;28;20538;-78
2022/11/12 10:23:38;;;;;;;10.68;4.68;;;;;;;;;;5036162;28;20127;-77
2022/11/12 10:26:12;;;;;;;6.38;4.70;;;;;;;;;;5035793;28;20509;-77
2022/11/12 10:28:59;;;;;;;7.20;4.72;;;;;;;;;;5035187;28;20078;-78
2022/11/12 10:31:30;;;;;;;5.47;4.18;;;;;;;;;;5035638;28;20025;-78
2022/11/12 10:34:31;;;;;;;6.32;4.45;;;;;;;;;;5035669;28;20029;-79
2022/11/12 10:37:01;;;;;;;6.65;4.40;;;;;;;;;;5053030;28;20040;-79
2022/11/12 10:39:47;;;;;;;7.03;4.45;;;;;;;;;;5053367;28;20029;-78
2022/11/12 10:42:14;;;;;;;8.30;4.45;;;;;;;;;;5037496;28;20021;-77
2022/11/12 10:44:44;;;;;;;6.57;4.25;;;;;;;;;;5035159;28;20025;-77
2022/11/12 10:47:19;;;;;;;7.32;5.15;;;;;;;;;;5053183;28;20395;-77
2022/11/12 10:50:06;;;;;;;6.70;4.50;;;;;;;;;;5053664;28;20482;-77
2022/11/12 10:52:35;;;;;;;8.90;5.13;;;;;;;;;;5012503;28;20449;-77
2022/11/12 10:55:16;;;;;;;6.95;4.32;;;;;;;;;;5035632;28;20055;-78
2022/11/12 10:57:42;;;;;;;;;;;;;;;;;;5053159;28;20455;-76
2022/11/12 11:00:11;;;;;;;6.15;3.63;;;;;;;;;;5034978;28;19908;-81
2022/11/12 11:02:49;;;;;;;5.38;3.30;;;;;;;;;;5033817;28;20505;-78
2022/11/12 11:05:35;;;;;;;5.28;4.00;;;;;;;;;;5034678;28;20048;-77
2022/11/12 11:08:07;;;;;;;7.47;4.53;;;;;;;;;;5034011;28;20360;-78
2022/11/12 11:10:34;;;;;;;7.80;4.03;;;;;;;;;;5052764;28;20033;-79
2022/11/12 11:13:30;;;;;;;6.40;3.58;;;;;;;;;;5052851;28;20441;-76
2022/11/12 11:16:05;;;;;;;3.40;2.70;;;;;;;;;;5021858;28;20559;-77
2022/11/12 11:18:37;;;;;;;4.20;2.55;;;;;;;;;;5033929;28;20550;-78
2022/11/12 11:21:16;;;;;;;4.97;2.40;;;;;;;;;;5034610;28;20029;-78
2022/11/12 11:24:15;;;;;;;3.83;2.45;;;;;;;;;;5034276;28;20510;-78
2022/11/12 11:26:47;;;;;;;4.07;2.38;;;;;;;;;;5001268;28;20514;-78
2022/11/12 11:29:32;;;;;;;5.95;2.70;;;;;;;;;;5033874;28;20116;-77
2022/11/12 11:32:02;;;;;;;7.22;4.85;;;;;;;;;;5052359;28;20413;-78
2022/11/12 11:34:43;;;;;;;4.07;3.00;;;;;;;;;;5052365;28;20494;-77
2022/11/12 11:37:30;;;;;;;14.57;4.60;;;;;;;;;;5051281;28;20554;-77
2022/11/12 11:39:56;;;;;;;23.48;11.07;;;;;;;;;;5034019;28;20496;-77
2022/11/12 11:42:25;;;;;;;3.50;2.15;;;;;;;;;;5034107;28;20090;-77
2022/11/12 11:45:10;;;;;;;3.00;1.88;;;;;;;;;;5033753;28;20029;-77
2022/11/12 11:47:50;;;;;;;4.18;2.42;;;;;;;;;;5051004;28;20568;-76
2022/11/12 11:50:55;;;;;;;46.42;19.88;;;;;;;;;;5034216;28;20039;-78
2022/11/12 11:53:23;;;;;;;16.35;7.07;;;;;;;;;;4971349;28;20033;-78
2022/11/12 11:55:58;;;;;;;16.75;7.28;;;;;;;;;;4973560;28;20075;-78
2022/11/12 11:58:33;;;;;;;5.28;2.00;;;;;;;;;;5016379;28;20033;-79
2022/11/12 12:01:18;;;;;;;9.32;4.22;;;;;;;;;;5052494;28;20462;-78
2022/11/12 12:04:05;;;;;;;10.38;5.13;;;;;;;;;;5034038;28;20033;-78
2022/11/12 12:06:35;;;;;;;4.88;2.70;;;;;;;;;;5052509;28;20429;-78
2022/11/12 12:09:01;;;;;;;8.43;2.60;;;;;;;;;;5050132;28;20032;-79
2022/11/12 12:11:51;;;;;;;3.15;1.77;;;;;;;;;;5052122;28;20176;-77
2022/11/12 12:14:19;;;;;;;2.38;1.55;;;;;;;;;;5030946;28;20033;-78
2022/11/12 12:17:19;;;;;;;;;;;;;;;;;;;;;
2022/11/12 12:20:09;;;;;;;7.15;2.90;;;;;;;;;;5052617;28;20035;-78
2022/11/12 12:22:42;;;;;;;2.60;1.50;;;;;;;;;;5050066;28;20112;-78
2022/11/12 12:25:17;;;;;;;2.72;1.40;;;;;;;;;;5033031;28;20025;-77
2022/11/12 12:28:02;;;;;;;2.42;1.92;;;;;;;;;;5051144;28;20123;-79
2022/11/12 12:30:32;;;;;;;10.93;5.20;;;;;;;;;;5034300;28;20039;-78
2022/11/12 12:33:08;;;;;;;3.33;1.70;;;;;;;;;;5033079;28;20026;-78
2022/11/12 12:35:38;;;;;;;3.08;1.83;;;;;;;;;;5033737;28;20021;-79
2022/11/12 12:38:31;;;;;;;1.92;1.48;;;;;;;;;;5032634;28;20495;-78
2022/11/12 12:41:06;;;;;;;2.33;1.92;;;;;;;;;;5033377;28;20470;-79
2022/11/12 12:44:02;;;;;;;4.72;1.75;;;;;;;;;;5050757;28;20040;-80
2022/11/12 12:46:39;;;;;;;3.22;1.80;;;;;;;;;;5033910;28;20025;-79
2022/11/12 12:49:09;;;;;;;1.75;1.52;;;;;;;;;;5032867;28;20048;-79
2022/11/12 12:51:35;;;;;;;2.77;1.80;;;;;;;;;;5051588;28;20152;-78
2022/11/12 12:54:25;;;;;;;6.30;3.08;;;;;;;;;;5032980;28;20780;-78
2022/11/12 12:56:58;;;;;;;4.30;2.00;;;;;;;;;;5033479;28;20126;-78
2022/11/12 12:59:40;;;;;;;3.08;1.65;;;;;;;;;;5032811;28;20037;-78
2022/11/12 13:02:18;;;;;;;3.78;2.58;;;;;;;;;;5033388;28;20029;-78
2022/11/12 13:04:59;;;;;;;3.17;1.80;;;;;;;;;;5034539;28;20025;-79
2022/11/12 13:07:47;;;;;;;3.28;2.20;;;;;;;;;;5051083;28;20051;-78
2022/11/12 13:10:34;;;;;;;5.60;3.28;;;;;;;;;;5034580;28;20103;-79
2022/11/12 13:13:31;;;;;;;;;;;;;;;;;;;;;
2022/11/12 13:16:10;;;;;;;5.95;3.47;;;;;;;;;;5050906;28;20111;-79
2022/11/12 13:18:41;;;;;;;6.15;3.15;;;;;;;;;;5034934;28;20071;-79
2022/11/12 13:21:29;;;;;;;6.13;3.80;;;;;;;;;;5036172;28;20056;-78
2022/11/12 13:24:09;;;;;;;4.45;3.40;;;;;;;;;;5033978;28;20029;-79
2022/11/12 13:26:44;;;;;;;7.47;4.35;;;;;;;;;;5054483;28;20021;-78
2022/11/12 13:32:57;;;;;;;6.65;4.55;;;;;;;;;;5027567;28;20040;-78
2022/11/12 13:35:29;;;;;;;6.97;4.72;;;;;;;;;;4958253;28;20031;-79
2022/11/12 13:38:14;;;;;;;7.45;4.95;;;;;;;;;;4975057;28;20149;-79
2022/11/12 13:40:54;;;;;;;7.82;5.10;;;;;;;;;;5038172;28;20032;-80
2022/11/12 13:43:26;;;;;;;9.98;5.40;;;;;;;;;;5058050;28;20029;-80
2022/11/12 13:46:10;;;;;;;7.03;4.72;;;;;;;;;;5038326;28;20029;-79
2022/11/12 13:48:46;;;;;;;7.43;4.85;;;;;;;;;;5037151;28;20052;-79
2022/11/12 13:51:19;;;;;;;8.38;4.95;;;;;;;;;;5038405;28;20486;-77
2022/11/12 13:53:51;;;;;;;7.57;4.63;;;;;;;;;;5035914;28;20479;-78
2022/11/12 13:56:28;;;;;;;6.35;4.85;;;;;;;;;;5036847;28;20697;-81
2022/11/12 13:59:14;;;;;;;5.80;4.18;;;;;;;;;;5038968;23;20045;-78
2022/11/12 14:01:43;;;;;;;9.10;5.13;;;;;;;;;;5031916;28;20041;-80
2022/11/12 14:04:24;;;;;;;10.40;4.85;;;;;;;;;;5033049;28;20022;-78
2022/11/12 14:07:10;;;;;;;7.18;4.57;;;;;;;;;;5034232;28;20029;-79
2022/11/12 14:09:53;;;;;;;8.30;4.60;;;;;;;;;;5031170;28;20033;-79
2022/11/12 14:12:22;;;;;;;7.60;4.60;;;;;;;;;;5032761;28;20037;-80
2022/11/12 14:14:51;;;;;;;7.15;4.60;;;;;;;;;;5033424;28;20048;-80
2022/11/12 14:17:38;;;;;;;8.85;4.90;;;;;;;;;;5032998;28;20029;-80
2022/11/12 14:20:07;;;;;;;8.13;4.70;;;;;;;;;;5128591;23;20045;-80
2022/11/12 14:22:43;;;;;;;8.20;5.07;;;;;;;;;;5036493;28;20025;-80
2022/11/12 14:25:29;;;;;;;8.20;5.03;;;;;;;;;;5036824;28;20039;-76
2022/11/12 14:30:31;;;;;;;8.18;5.43;;;;;;;;;;4681872;26;20088;-78
2022/11/12 14:33:07;;;;;;;8.02;5.75;;;;;;;;;;5073527;28;20040;-79
2022/11/12 14:35:45;;;;;;;8.18;4.70;;;;;;;;;;5073428;28;20028;-79
2022/11/12 14:38:17;;;;;;;7.32;4.47;;;;;;;;;;5072599;28;20426;-79
2022/11/12 14:40:50;;;;;;;7.30;5.13;;;;;;;;;;5076586;28;20092;-79
2022/11/12 14:43:33;;;;;;;8.10;5.15;;;;;;;;;;5096444;28;20031;-81
2022/11/12 14:46:09;;;;;;;6.68;3.85;;;;;;;;;;5096083;28;20025;-82
2022/11/12 14:49:03;;;;;;;5.78;4.60;;;;;;;;;;5144132;22;20139;-79
2022/11/12 14:51:33;;;;;;;5.97;3.83;;;;;;;;;;5052586;28;20444;-79
2022/11/12 14:54:05;;;;;;;8.48;4.00;;;;;;;;;;5053507;28;20044;-78
2022/11/12 14:56:38;;;;;;;7.05;4.55;;;;;;;;;;5053394;28;20029;-79
2022/11/12 14:59:07;;;;;;;10.77;6.00;;;;;;;;;;5051799;28;20033;-78
2022/11/12 15:01:38;;;;;;;12.80;7.20;;;;;;;;;;5052692;28;20390;-78
2022/11/12 15:04:13;;;;;;;11.73;8.05;;;;;;;;;;5052222;28;20445;-79
2022/11/12 15:06:42;;;;;;;14.48;7.85;;;;;;;;;;5054154;28;20371;-79
2022/11/12 15:09:08;;;;;;;20.52;10.63;;;;;;;;;;5051940;28;20582;-78
2022/11/12 15:11:45;;;;;;;22.05;11.18;;;;;;;;;;5051938;28;20037;-80
2022/11/12 15:14:21;;;;;;;25.27;14.00;;;;;;;;;;5054223;28;20104;-79
2022/11/12 15:16:50;;;;;;;17.70;10.32;;;;;;;;;;5051792;28;20033;-78
2022/11/12 15:19:26;;;;;;;16.35;8.82;;;;;;;;;;5052419;28;20029;-79
2022/11/12 15:21:54;;;;;;;25.65;15.73;;;;;;;;;;5051833;28;20490;-78
2022/11/12 15:24:36;;;;;;;16.83;12.27;;;;;;;;;;5053187;28;20040;-78
2022/11/12 15:27:24;;;;;;;20.88;13.40;;;;;;;;;;5049725;28;20060;-79
2022/11/12 15:29:54;;;;;;;18.15;11.68;;;;;;;;;;5051777;28;20099;-79